createdAt,value
2018-08-16T03:19:26.898Z,991.75
2018-08-16T03:39:48.871Z,991.74
2018-08-16T03:41:39.825Z,991.74
2018-08-16T03:44:22.723Z,991.72
2018-08-16T03:52:40.722Z,991.70
2018-08-16T04:02:30.432Z,991.67
2018-08-16T04:03:32.112Z,991.65
2018-08-16T04:04:41.523Z,991.64
2018-08-16T04:05:31.900Z,991.63
2018-08-16T04:06:35.561Z,991.66
2018-08-16T04:07:33.916Z,991.71
2018-08-16T04:08:33.081Z,991.68
2018-08-16T04:09:32.480Z,991.67
2018-08-16T04:10:32.218Z,991.71
2018-08-16T04:11:33.834Z,991.69
2018-08-16T04:13:33.534Z,991.69
2018-08-16T04:14:33.415Z,991.67
2018-08-16T04:15:32.638Z,991.69
2018-08-16T04:16:43.050Z,991.70
2018-08-16T04:17:34.240Z,991.69
2018-08-16T04:18:31.719Z,991.68
2018-08-16T04:19:30.744Z,991.68
2018-08-16T04:20:31.738Z,991.70
2018-08-16T04:21:31.550Z,991.69
2018-08-16T04:22:32.047Z,991.67
2018-08-16T04:23:32.906Z,991.64
2018-08-16T04:24:32.206Z,991.61
2018-08-16T04:25:32.783Z,991.64
2018-08-16T04:29:15.818Z,991.67
2018-08-16T04:30:15.789Z,991.70
2018-08-16T04:31:14.283Z,991.69
2018-08-16T04:32:14.032Z,991.70
2018-08-16T04:33:17.238Z,991.70
2018-08-16T04:43:51.659Z,991.68
2018-08-16T04:57:31.343Z,991.66
2018-08-16T04:58:35.020Z,991.67
2018-08-16T04:59:32.071Z,991.65
2018-08-16T05:00:32.163Z,991.68
2018-08-16T05:01:33.534Z,991.64
2018-08-16T05:02:40.490Z,991.65
2018-08-16T05:03:46.150Z,991.65
2018-08-16T05:04:32.438Z,991.62
2018-08-16T05:05:33.493Z,991.61
2018-08-16T05:06:32.742Z,991.63
2018-08-16T05:07:35.643Z,991.66
2018-08-16T05:08:41.143Z,991.64
2018-08-16T05:17:18.072Z,991.63
2018-08-16T05:18:18.643Z,991.60
2018-08-16T05:19:18.706Z,991.64
2018-08-16T05:20:17.336Z,991.64
2018-08-16T05:21:18.157Z,991.65
2018-08-16T05:22:19.105Z,991.64
2018-08-16T05:23:18.534Z,991.64
2018-08-16T05:24:19.071Z,991.63
2018-08-16T05:25:19.534Z,991.63
2018-08-16T05:26:21.934Z,991.60
2018-08-16T05:27:18.229Z,991.63
2018-08-16T05:28:16.927Z,991.62
2018-08-16T05:29:17.153Z,991.61
2018-08-16T05:30:17.182Z,991.60
2018-08-16T05:31:17.359Z,991.57
2018-08-16T05:32:17.433Z,991.59
2018-08-16T05:33:17.570Z,991.57
2018-08-16T05:34:17.784Z,991.60
2018-08-16T05:35:18.042Z,991.57
2018-08-16T05:36:18.169Z,991.60
2018-08-16T05:37:18.442Z,991.57
2018-08-16T05:38:18.553Z,991.56
2018-08-16T05:39:18.738Z,991.59
2018-08-16T05:40:18.917Z,991.54
2018-08-16T05:41:19.071Z,991.55
2018-08-16T05:42:19.289Z,991.56
2018-08-16T05:43:19.368Z,991.59
2018-08-16T05:44:19.729Z,991.58
2018-08-16T05:45:19.634Z,991.57
2018-08-16T05:46:20.062Z,991.56
2018-08-16T05:47:20.020Z,991.56
2018-08-16T05:48:20.211Z,991.58
2018-08-16T05:49:20.447Z,991.60
2018-08-16T05:50:20.620Z,991.57
2018-08-16T05:51:20.779Z,991.60
2018-08-16T05:52:20.926Z,991.56
2018-08-16T05:53:21.324Z,991.60
2018-08-16T05:54:21.250Z,991.58
2018-08-16T05:55:21.652Z,991.59
2018-08-16T05:56:21.728Z,991.59
2018-08-16T05:57:22.069Z,991.55
2018-08-16T05:58:22.111Z,991.56
2018-08-16T05:59:22.187Z,991.56
2018-08-16T06:00:22.445Z,991.56
2018-08-16T06:01:22.629Z,991.59
2018-08-16T06:02:22.808Z,991.58
2018-08-16T06:03:27.709Z,991.59
2018-08-16T06:04:25.470Z,991.62
2018-08-16T06:05:23.273Z,991.60
2018-08-16T06:06:23.395Z,991.61
2018-08-16T06:07:23.639Z,991.57
2018-08-16T06:08:23.815Z,991.53
2018-08-16T06:09:24.018Z,991.52
2018-08-16T06:10:24.109Z,991.50
2018-08-16T06:11:24.177Z,991.46
2018-08-16T06:12:24.505Z,991.47
2018-08-16T06:13:24.770Z,991.49
2018-08-16T06:14:24.856Z,991.52
2018-08-16T06:15:25.002Z,991.52
2018-08-16T06:16:25.239Z,991.48
2018-08-16T06:17:25.208Z,991.47
2018-08-16T06:18:25.473Z,991.46
2018-08-16T06:19:25.659Z,991.43
2018-08-16T06:20:25.803Z,991.45
2018-08-16T06:21:26.051Z,991.45
2018-08-16T06:22:26.144Z,991.44
2018-08-16T06:23:26.327Z,991.43
2018-08-16T06:24:26.463Z,991.43
2018-08-16T06:25:26.629Z,991.42
2018-08-16T06:26:26.890Z,991.39
2018-08-16T06:27:26.967Z,991.39
2018-08-16T06:28:27.978Z,991.35
2018-08-16T06:29:27.219Z,991.34
2018-08-16T06:30:27.374Z,991.39
2018-08-16T06:31:27.713Z,991.35
2018-08-16T06:32:27.874Z,991.38
2018-08-16T06:33:28.061Z,991.38
2018-08-16T06:34:28.045Z,991.34
2018-08-16T06:35:28.309Z,991.33
2018-08-16T06:36:28.401Z,991.32
2018-08-16T06:37:28.522Z,991.26
2018-08-16T06:38:29.027Z,991.26
2018-08-16T06:39:28.951Z,991.24
2018-08-16T06:40:29.126Z,991.29
2018-08-16T06:41:29.273Z,991.34
2018-08-16T06:42:29.377Z,991.31
2018-08-16T06:43:29.585Z,991.29
2018-08-16T06:44:29.833Z,991.31
2018-08-16T06:45:29.994Z,991.30
2018-08-16T06:46:30.088Z,991.33
2018-08-16T06:47:30.356Z,991.29
2018-08-16T06:48:30.599Z,991.30
2018-08-16T06:49:30.666Z,991.32
2018-08-16T06:50:30.949Z,991.27
2018-08-16T06:51:31.003Z,991.29
2018-08-16T06:52:31.197Z,991.25
2018-08-16T06:53:31.378Z,991.30
2018-08-16T06:54:31.487Z,991.26
2018-08-16T06:55:31.747Z,991.25
2018-08-16T06:56:31.815Z,991.23
2018-08-16T06:57:32.098Z,991.23
2018-08-16T06:58:32.240Z,991.20
2018-08-16T06:59:32.385Z,991.21
2018-08-16T07:00:32.570Z,991.23
2018-08-16T07:01:32.682Z,991.18
2018-08-16T07:02:32.953Z,991.18
2018-08-16T07:03:33.144Z,991.18
2018-08-16T07:04:33.300Z,991.21
2018-08-16T07:05:33.501Z,991.23
2018-08-16T07:06:33.640Z,991.19
2018-08-16T07:07:33.822Z,991.24
2018-08-16T07:08:34.061Z,991.19
2018-08-16T07:09:34.197Z,991.21
2018-08-16T07:10:34.362Z,991.18
2018-08-16T07:11:35.361Z,991.17
2018-08-16T07:12:34.684Z,991.17
2018-08-16T07:13:34.821Z,991.16
2018-08-16T07:14:34.958Z,991.19
2018-08-16T07:15:35.063Z,991.19
2018-08-16T07:16:35.319Z,991.21
2018-08-16T07:17:35.594Z,991.19
2018-08-16T07:18:35.572Z,991.20
2018-08-16T07:19:35.865Z,991.20
2018-08-16T07:20:35.975Z,991.16
2018-08-16T07:21:36.211Z,991.20
2018-08-16T07:22:36.380Z,991.16
2018-08-16T07:23:36.496Z,991.15
2018-08-16T07:24:36.648Z,991.19
2018-08-16T07:25:36.805Z,991.13
2018-08-16T07:26:37.015Z,991.10
2018-08-16T07:27:37.190Z,991.09
2018-08-16T07:28:37.370Z,991.07
2018-08-16T07:29:37.545Z,991.08
2018-08-16T07:30:37.699Z,991.10
2018-08-16T07:31:37.853Z,991.05
2018-08-16T07:32:37.991Z,991.09
2018-08-16T07:33:38.206Z,991.01
2018-08-16T07:34:38.458Z,991.06
2018-08-16T07:35:38.559Z,991.04
2018-08-16T07:36:38.665Z,991.03
2018-08-16T07:37:38.954Z,991.03
2018-08-16T07:38:39.307Z,991.07
2018-08-16T07:39:39.279Z,991.03
2018-08-16T07:40:39.510Z,991.03
2018-08-16T07:41:39.599Z,991.04
2018-08-16T07:42:39.968Z,991.01
2018-08-16T07:43:40.031Z,991.02
2018-08-16T07:44:40.224Z,990.99
2018-08-16T07:45:40.392Z,991.00
2018-08-16T07:46:40.481Z,990.99
2018-08-16T07:47:40.695Z,991.00
2018-08-16T07:48:40.799Z,990.99
2018-08-16T07:49:41.066Z,990.97
2018-08-16T07:50:41.090Z,990.94
2018-08-16T07:51:41.385Z,990.95
2018-08-16T07:52:41.648Z,990.95
2018-08-16T07:53:41.599Z,990.97
2018-08-16T07:54:41.876Z,990.98
2018-08-16T07:55:41.983Z,990.97
2018-08-16T07:56:42.169Z,990.96
2018-08-16T07:57:42.365Z,990.96
2018-08-16T07:58:42.513Z,990.95
2018-08-16T07:59:42.641Z,990.94
2018-08-16T08:00:42.903Z,990.93
2018-08-16T08:01:43.031Z,990.93
2018-08-16T08:02:43.137Z,990.92
2018-08-16T08:03:43.351Z,990.96
2018-08-16T08:04:43.533Z,990.93
2018-08-16T08:05:43.685Z,990.93
2018-08-16T08:06:43.885Z,990.91
2018-08-16T08:07:44.167Z,990.94
2018-08-16T08:08:44.275Z,990.86
2018-08-16T08:09:44.433Z,990.91
2018-08-16T08:10:44.584Z,990.88
2018-08-16T08:11:44.781Z,990.90
2018-08-16T08:12:44.956Z,990.91
2018-08-16T08:13:45.104Z,990.84
2018-08-16T08:14:45.338Z,990.83
2018-08-16T08:15:46.271Z,990.83
2018-08-16T08:16:45.672Z,990.81
2018-08-16T08:17:45.891Z,990.83
2018-08-16T08:18:46.101Z,990.87
2018-08-16T08:19:46.196Z,990.89
2018-08-16T08:20:46.370Z,990.90
2018-08-16T08:21:46.465Z,990.88
2018-08-16T08:22:46.737Z,990.91
2018-08-16T08:23:46.910Z,990.87
2018-08-16T08:24:47.014Z,990.92
2018-08-16T08:25:47.260Z,990.92
2018-08-16T08:26:47.410Z,990.88
2018-08-16T08:27:47.623Z,990.91
2018-08-16T08:28:47.801Z,990.85
2018-08-16T08:29:48.006Z,990.82
2018-08-16T08:30:48.226Z,990.88
2018-08-16T08:31:48.537Z,990.88
2018-08-16T08:32:48.618Z,990.87
2018-08-16T08:33:48.692Z,990.89
2018-08-16T08:34:48.868Z,990.88
2018-08-16T08:35:49.091Z,990.88
2018-08-16T08:36:49.366Z,990.89
2018-08-16T08:37:49.446Z,990.95
2018-08-16T08:38:49.780Z,990.88
2018-08-16T08:39:50.042Z,990.91
2018-08-16T08:40:52.065Z,990.88
2018-08-16T08:41:51.817Z,990.88
2018-08-16T08:42:50.226Z,990.88
2018-08-16T08:43:50.591Z,990.88
2018-08-16T08:44:50.625Z,990.87
2018-08-16T08:45:51.013Z,990.86
2018-08-16T08:46:51.112Z,990.86
2018-08-16T08:47:51.326Z,990.85
2018-08-16T08:48:51.481Z,990.82
2018-08-16T08:49:51.650Z,990.82
2018-08-16T08:50:52.009Z,990.83
2018-08-16T08:51:52.063Z,990.82
2018-08-16T08:52:52.186Z,990.77
2018-08-16T08:53:52.497Z,990.74
2018-08-16T08:54:52.517Z,990.74
2018-08-16T08:55:53.258Z,990.70
2018-08-16T08:56:52.924Z,990.67
2018-08-16T08:57:53.072Z,990.65
2018-08-16T08:58:53.228Z,990.65
2018-08-16T08:59:53.495Z,990.66
2018-08-16T09:00:53.665Z,990.68
2018-08-16T09:01:53.814Z,990.63
2018-08-16T09:02:53.887Z,990.61
2018-08-16T09:03:54.056Z,990.57
2018-08-16T09:04:54.205Z,990.61
2018-08-16T09:05:54.468Z,990.59
2018-08-16T09:06:54.590Z,990.60
2018-08-16T09:07:54.885Z,990.58
2018-08-16T09:08:55.024Z,990.52
2018-08-16T09:09:55.270Z,990.53
2018-08-16T09:10:55.377Z,990.54
2018-08-16T09:11:55.657Z,990.51
2018-08-16T09:12:55.769Z,990.48
2018-08-16T09:13:55.977Z,990.45
2018-08-16T09:14:56.107Z,990.43
2018-08-16T09:15:56.328Z,990.40
2018-08-16T09:16:56.485Z,990.47
2018-08-16T09:17:56.550Z,990.45
2018-08-16T09:18:56.738Z,990.56
2018-08-16T09:19:57.074Z,990.69
2018-08-16T09:20:57.098Z,990.63
2018-08-16T09:21:57.284Z,990.52
2018-08-16T09:22:57.403Z,990.44
2018-08-16T09:23:57.687Z,990.46
2018-08-16T09:24:57.872Z,990.52
2018-08-16T09:25:58.032Z,990.55
2018-08-16T09:26:58.124Z,990.57
2018-08-16T09:27:58.351Z,990.46
2018-08-16T09:28:58.544Z,990.56
2018-08-16T09:29:58.631Z,990.54
2018-08-16T09:30:58.901Z,990.61
2018-08-16T09:31:59.091Z,990.59
2018-08-16T09:32:59.323Z,990.59
2018-08-16T09:33:59.402Z,990.59
2018-08-16T09:34:59.578Z,990.56
2018-08-16T09:35:59.824Z,990.57
2018-08-16T09:36:59.901Z,990.61
2018-08-16T09:38:00.128Z,990.59
2018-08-16T09:39:00.306Z,990.56
2018-08-16T09:40:00.434Z,990.68
2018-08-16T09:41:00.725Z,990.67
2018-08-16T09:42:00.804Z,990.68
2018-08-16T09:43:00.956Z,990.64
2018-08-16T09:44:01.133Z,990.67
2018-08-16T09:45:01.427Z,990.69
2018-08-16T09:46:01.611Z,990.63
2018-08-16T09:47:01.810Z,990.61
2018-08-16T09:48:01.918Z,990.67
2018-08-16T09:49:02.159Z,990.71
2018-08-16T09:50:02.285Z,990.66
2018-08-16T09:51:02.437Z,990.60
2018-08-16T09:52:02.592Z,990.55
2018-08-16T09:53:02.780Z,990.49
2018-08-16T09:54:03.011Z,990.46
2018-08-16T09:55:03.055Z,990.50
2018-08-16T09:56:03.320Z,990.46
2018-08-16T09:57:03.459Z,990.48
2018-08-16T09:58:03.672Z,990.53
2018-08-16T09:59:03.950Z,990.54
2018-08-16T10:00:04.030Z,990.53
2018-08-16T10:01:04.170Z,990.47
2018-08-16T10:02:04.430Z,990.47
2018-08-16T10:03:04.582Z,990.45
2018-08-16T10:04:04.737Z,990.45
2018-08-16T10:05:04.941Z,990.47
2018-08-16T10:06:05.121Z,990.47
2018-08-16T10:07:05.918Z,990.46
2018-08-16T10:08:05.397Z,990.48
2018-08-16T10:09:05.628Z,990.40
2018-08-16T10:10:05.812Z,990.45
2018-08-16T10:11:05.968Z,990.46
2018-08-16T10:12:06.097Z,990.43
2018-08-16T10:13:06.320Z,990.52
2018-08-16T10:14:06.558Z,990.45
2018-08-16T10:15:06.690Z,990.46
2018-08-16T10:16:06.964Z,990.42
2018-08-16T10:17:07.014Z,990.39
2018-08-16T10:18:07.234Z,990.28
2018-08-16T10:19:07.320Z,990.26
2018-08-16T10:20:07.587Z,990.30
2018-08-16T10:21:07.682Z,990.32
2018-08-16T10:22:07.871Z,990.20
2018-08-16T10:23:08.128Z,990.21
2018-08-16T10:24:08.470Z,990.23
2018-08-16T10:25:08.609Z,990.21
2018-08-16T10:26:08.711Z,990.16
2018-08-16T10:27:08.996Z,990.14
2018-08-16T10:28:09.035Z,990.16
2018-08-16T10:29:09.209Z,990.14
2018-08-16T10:30:09.423Z,990.13
2018-08-16T10:31:09.645Z,990.18
2018-08-16T10:32:09.738Z,990.06
2018-08-16T10:33:10.098Z,990.14
2018-08-16T10:34:10.249Z,990.18
2018-08-16T10:35:10.410Z,990.20
2018-08-16T10:36:10.498Z,990.18
2018-08-16T10:37:10.881Z,990.12
2018-08-16T10:38:10.958Z,990.20
2018-08-16T10:39:11.191Z,990.54
2018-08-16T10:40:11.414Z,991.02
2018-08-16T10:41:11.424Z,991.09
2018-08-16T10:42:11.650Z,990.97
2018-08-16T10:43:11.852Z,990.60
2018-08-16T10:44:12.137Z,990.18
2018-08-16T10:45:12.188Z,990.14
2018-08-16T10:46:12.391Z,990.18
2018-08-16T10:47:12.502Z,990.18
2018-08-16T10:48:12.776Z,990.16
2018-08-16T10:49:12.984Z,990.13
2018-08-16T10:50:13.152Z,990.15
2018-08-16T10:51:13.280Z,990.11
2018-08-16T10:52:13.426Z,989.95
2018-08-16T10:53:13.692Z,989.81
2018-08-16T10:54:13.824Z,989.98
2018-08-16T10:55:13.920Z,990.15
2018-08-16T10:56:14.132Z,990.26
2018-08-16T10:57:14.388Z,990.16
2018-08-16T10:58:14.612Z,990.13
2018-08-16T10:59:14.735Z,990.11
2018-08-16T11:00:15.043Z,990.06
2018-08-16T11:01:15.045Z,990.04
2018-08-16T11:02:15.233Z,990.00
2018-08-16T11:03:15.344Z,989.97
2018-08-16T11:04:15.629Z,989.99
2018-08-16T11:05:15.855Z,990.02
2018-08-16T11:06:15.948Z,990.04
2018-08-16T11:07:16.281Z,990.05
2018-08-16T11:08:16.373Z,990.07
2018-08-16T11:09:17.303Z,990.01
2018-08-16T11:10:17.007Z,990.07
2018-08-16T11:11:16.912Z,990.15
2018-08-16T11:12:17.085Z,990.18
2018-08-16T11:13:17.204Z,990.16
2018-08-16T11:14:17.442Z,990.12
2018-08-16T11:15:17.676Z,990.14
2018-08-16T11:16:18.425Z,990.17
2018-08-16T11:17:18.096Z,990.17
2018-08-16T11:18:18.313Z,990.14
2018-08-16T11:19:18.459Z,990.12
2018-08-16T11:20:18.635Z,990.12
2018-08-16T11:21:18.898Z,990.11
2018-08-16T11:22:18.960Z,990.16
2018-08-16T11:23:19.087Z,990.18
2018-08-16T11:24:19.357Z,990.21
2018-08-16T11:25:19.485Z,990.21
2018-08-16T11:26:19.672Z,990.18
2018-08-16T11:27:19.813Z,990.22
2018-08-16T11:28:20.053Z,990.19
2018-08-16T11:29:20.175Z,990.22
2018-08-16T11:30:20.410Z,990.26
2018-08-16T11:31:20.526Z,990.28
2018-08-16T11:32:20.769Z,990.33
2018-08-16T11:33:21.398Z,990.26
2018-08-16T11:34:21.532Z,990.29
2018-08-16T11:35:21.966Z,990.34
2018-08-16T11:36:22.337Z,990.29
2018-08-16T11:37:22.139Z,990.24
2018-08-16T11:38:21.846Z,990.25
2018-08-16T11:39:22.245Z,990.26
2018-08-16T11:40:22.332Z,990.25
2018-08-16T11:41:22.539Z,990.18
2018-08-16T11:42:22.677Z,990.17
2018-08-16T11:43:22.850Z,990.16
2018-08-16T11:44:23.254Z,990.17
2018-08-16T11:45:23.369Z,990.18
2018-08-16T11:46:23.522Z,990.22
2018-08-16T11:47:23.735Z,990.15
2018-08-16T11:48:24.055Z,990.16
2018-08-16T11:49:24.239Z,990.11
2018-08-16T11:50:24.358Z,990.07
2018-08-16T11:51:24.505Z,990.08
2018-08-16T11:52:24.762Z,990.10
2018-08-16T11:53:25.010Z,990.09
2018-08-16T11:54:24.970Z,990.03
2018-08-16T11:55:25.337Z,990.05
2018-08-16T11:56:25.361Z,990.01
2018-08-16T11:57:29.702Z,989.99
2018-08-16T11:58:26.315Z,989.97
2018-08-16T11:59:26.270Z,990.00
2018-08-16T12:00:27.404Z,990.02
2018-08-16T12:01:26.472Z,990.04
2018-08-16T12:02:26.456Z,990.05
2018-08-16T12:03:28.106Z,990.01
2018-08-16T12:04:27.118Z,990.10
2018-08-16T12:05:27.443Z,990.10
2018-08-16T12:06:27.523Z,990.04
2018-08-16T12:07:27.464Z,990.03
2018-08-16T12:08:27.612Z,990.01
2018-08-16T12:09:28.590Z,989.97
2018-08-16T12:10:28.039Z,989.94
2018-08-16T12:11:28.960Z,989.93
2018-08-16T12:12:28.467Z,989.97
2018-08-16T12:13:28.657Z,989.87
2018-08-16T12:14:28.892Z,989.87
2018-08-16T12:15:29.045Z,989.86
2018-08-16T12:16:29.141Z,989.84
2018-08-16T12:17:29.827Z,989.80
2018-08-16T12:18:31.281Z,989.76
2018-08-16T12:19:50.578Z,989.78
2018-08-16T12:20:41.355Z,989.77
2018-08-16T12:21:45.098Z,989.80
2018-08-16T12:23:37.326Z,989.83
2018-08-16T12:27:34.856Z,989.73
2018-08-16T12:28:08.855Z,989.80
2018-08-16T12:34:46.198Z,989.29
2018-08-16T12:40:02.119Z,988.97
2018-08-16T12:41:38.256Z,988.96
2018-08-16T12:43:48.641Z,988.99
2018-08-16T12:45:26.038Z,989.01
2018-08-16T12:46:30.411Z,988.95
2018-08-16T12:47:27.519Z,988.94
2018-08-16T12:48:27.440Z,988.94
2018-08-16T12:49:32.142Z,988.87
2018-08-16T12:50:38.794Z,988.87
2018-08-16T12:51:40.611Z,988.90
2018-08-16T12:53:54.624Z,988.90
2018-08-16T12:59:16.119Z,988.81
2018-08-16T13:00:04.798Z,988.80
2018-08-16T13:01:27.627Z,988.82
2018-08-16T13:03:12.141Z,988.71
2018-08-16T13:04:02.970Z,988.69
2018-08-16T13:06:39.601Z,988.70
2018-08-16T13:10:12.311Z,988.55
2018-08-16T13:12:13.368Z,988.54
2018-08-16T13:13:11.989Z,988.48
2018-08-16T13:14:09.350Z,988.47
2018-08-16T13:15:10.279Z,988.49
2018-08-16T13:21:13.259Z,988.44
2018-08-16T13:23:21.133Z,988.36
2018-08-16T13:24:59.470Z,988.30
2018-08-16T13:26:26.555Z,988.32
2018-08-16T13:27:08.222Z,988.33
2018-08-16T13:27:50.215Z,988.35
2018-08-16T13:28:50.698Z,988.38
2018-08-16T13:29:48.579Z,988.33
2018-08-16T13:30:47.574Z,988.36
2018-08-16T13:31:48.412Z,988.33
2018-08-16T13:32:47.912Z,988.30
2018-08-16T13:33:48.195Z,988.26
2018-08-16T13:34:48.288Z,988.27
2018-08-16T13:35:48.561Z,988.24
2018-08-16T13:36:48.913Z,988.27
2018-08-16T13:37:48.963Z,988.23
2018-08-16T13:38:48.899Z,988.17
2018-08-16T13:39:50.079Z,988.25
2018-08-16T13:40:50.144Z,988.25
2018-08-16T13:41:50.968Z,988.27
2018-08-16T13:42:50.556Z,988.15
2018-08-16T13:44:00.846Z,988.19
2018-08-16T13:44:52.356Z,988.21
2018-08-16T13:45:51.137Z,988.24
2018-08-16T13:46:57.972Z,988.18
2018-08-16T13:47:51.338Z,988.22
2018-08-16T13:48:51.545Z,988.17
2018-08-16T13:49:54.629Z,988.20
2018-08-16T13:50:54.841Z,988.16
2018-08-16T13:51:52.570Z,988.17
2018-08-16T13:52:54.236Z,988.11
2018-08-16T13:53:57.640Z,988.13
2018-08-16T13:54:53.487Z,988.08
2018-08-16T13:55:52.427Z,988.05
2018-08-16T13:56:56.491Z,988.02
2018-08-16T14:07:23.658Z,987.97
2018-08-16T14:08:58.446Z,988.06
2018-08-16T14:31:21.547Z,987.73
2018-08-16T14:36:22.282Z,987.76
2018-08-16T14:36:50.206Z,987.73
2018-08-16T14:40:34.664Z,987.72
2018-08-16T14:42:15.642Z,987.68
2018-08-16T14:45:55.102Z,987.63
2018-08-16T14:52:14.306Z,987.70
2018-08-16T14:53:11.976Z,987.64
2018-08-16T14:54:12.648Z,987.60
2018-08-16T14:55:15.644Z,987.57
2018-08-16T14:56:11.728Z,987.57
2018-08-16T14:57:10.030Z,987.56
2018-08-16T14:58:09.925Z,987.59
2018-08-16T14:59:09.997Z,987.64
2018-08-16T15:00:10.374Z,987.53
2018-08-16T15:01:10.673Z,987.58
2018-08-16T15:02:10.904Z,987.59
2018-08-16T15:03:10.864Z,987.53
2018-08-16T15:04:11.206Z,987.61
2018-08-16T15:05:11.029Z,987.56
2018-08-16T15:06:11.150Z,987.51
2018-08-16T15:07:11.427Z,987.52
2018-08-16T15:08:11.855Z,987.48
2018-08-16T15:09:11.623Z,987.49
2018-08-16T15:10:12.065Z,987.46
2018-08-16T15:11:12.544Z,987.46
2018-08-16T15:12:12.463Z,987.39
2018-08-16T15:13:12.735Z,987.40
2018-08-16T15:14:12.932Z,987.40
2018-08-16T15:15:13.045Z,987.37
2018-08-16T15:16:13.061Z,987.38
2018-08-16T15:17:13.558Z,987.40
2018-08-16T15:18:13.533Z,987.37
2018-08-16T15:19:13.733Z,987.42
2018-08-16T15:20:13.944Z,987.35
2018-08-16T15:21:14.372Z,987.41
2018-08-16T15:22:14.120Z,987.41
2018-08-16T15:23:14.936Z,987.42
2018-08-16T15:24:15.467Z,987.40
2018-08-16T15:25:14.733Z,987.40
2018-08-16T15:26:14.970Z,987.39
2018-08-16T15:27:15.211Z,987.43
2018-08-16T15:28:15.275Z,987.38
2018-08-16T15:29:15.428Z,987.37
2018-08-16T15:30:15.632Z,987.40
2018-08-16T15:31:15.887Z,987.36
2018-08-16T15:32:16.334Z,987.36
2018-08-16T15:33:16.532Z,987.33
2018-08-16T15:34:16.580Z,987.32
2018-08-16T15:35:17.149Z,987.33
2018-08-16T15:36:16.882Z,987.31
2018-08-16T15:37:17.506Z,987.32
2018-08-16T15:38:17.404Z,987.33
2018-08-16T15:39:17.541Z,987.33
2018-08-16T15:40:17.646Z,987.31
2018-08-16T15:41:18.197Z,987.30
2018-08-16T15:42:18.284Z,987.30
2018-08-16T15:43:18.824Z,987.29
2018-08-16T15:44:18.845Z,987.22
2018-08-16T15:45:18.558Z,987.22
2018-08-16T15:46:18.975Z,987.24
2018-08-16T15:47:22.214Z,987.25
2018-08-16T15:48:19.572Z,987.24
2018-08-16T15:49:19.321Z,987.21
2018-08-16T15:50:19.661Z,987.25
2018-08-16T15:51:21.975Z,987.25
2018-08-16T15:52:21.736Z,987.25
2018-08-16T15:53:41.055Z,987.25
2018-08-16T15:59:21.971Z,987.13
2018-08-16T16:11:53.716Z,986.94
2018-08-16T16:14:41.790Z,986.93
2018-08-16T16:27:13.289Z,986.78
2018-08-16T16:27:36.827Z,986.81
2018-08-16T16:28:37.649Z,986.73
2018-08-16T16:30:13.600Z,986.76
2018-08-16T17:00:01.911Z,986.51
2018-08-16T17:01:18.962Z,986.49
2018-08-16T17:01:47.796Z,986.52
2018-08-16T17:04:25.299Z,986.50
2018-08-16T17:07:53.115Z,986.49
2018-08-16T17:08:53.001Z,986.52
2018-08-16T17:09:50.554Z,986.54
2018-08-16T17:11:47.702Z,986.53
2018-08-16T17:12:48.494Z,986.52
2018-08-16T17:19:24.856Z,986.50
2018-08-16T17:21:12.917Z,986.52
2018-08-16T17:21:25.111Z,986.46
2018-08-16T17:26:10.856Z,986.45
2018-08-16T17:27:20.533Z,986.47
2018-08-16T17:32:56.688Z,986.44
2018-08-16T17:35:05.261Z,986.42
2018-08-16T17:36:00.692Z,986.43
2018-08-16T17:36:54.208Z,986.43
2018-08-16T17:37:55.709Z,986.43
2018-08-16T17:38:55.499Z,986.43
2018-08-16T17:40:03.201Z,986.46
2018-08-16T17:41:02.147Z,986.47
2018-08-16T17:41:54.952Z,986.47
2018-08-16T17:44:57.212Z,986.48
2018-08-16T17:45:57.041Z,986.42
2018-08-16T17:47:55.336Z,986.47
2018-08-16T17:48:53.956Z,986.46
2018-08-16T17:49:53.707Z,986.50
2018-08-16T17:50:53.419Z,986.46
2018-08-16T17:51:53.944Z,986.47
2018-08-16T17:52:54.051Z,986.52
2018-08-16T17:53:54.431Z,986.51
2018-08-16T17:54:54.206Z,986.48
2018-08-16T17:55:54.658Z,986.49
2018-08-16T17:56:54.804Z,986.50
2018-08-16T17:57:55.441Z,986.52
2018-08-16T17:58:54.779Z,986.48
2018-08-16T17:59:55.048Z,986.47
2018-08-16T18:00:55.600Z,986.49
2018-08-16T18:01:55.367Z,986.47
2018-08-16T18:02:55.871Z,986.47
2018-08-16T18:03:55.983Z,986.45
2018-08-16T18:04:56.346Z,986.47
2018-08-16T18:05:56.079Z,986.48
2018-08-16T18:06:56.460Z,986.45
2018-08-16T18:07:56.538Z,986.49
2018-08-16T18:08:56.745Z,986.47
2018-08-16T18:09:56.935Z,986.49
2018-08-16T18:10:57.308Z,986.47
2018-08-16T18:11:57.479Z,986.45
2018-08-16T18:12:57.695Z,986.48
2018-08-16T18:13:57.860Z,986.47
2018-08-16T18:14:58.010Z,986.45
2018-08-16T18:15:58.071Z,986.46
2018-08-16T18:16:58.795Z,986.47
2018-08-16T18:17:59.284Z,986.48
2018-08-16T18:19:00.754Z,986.48
2018-08-16T18:20:04.994Z,986.50
2018-08-16T18:20:59.585Z,986.52
2018-08-16T18:21:59.559Z,986.48
